createdAt,value
2019-01-02T00:00:18.299Z,4.10
2019-01-02T00:02:44.698Z,4.20
2019-01-02T00:05:10.721Z,4.40
2019-01-02T00:07:36.722Z,4.60
2019-01-02T00:10:04.358Z,4.80
2019-01-02T00:12:30.368Z,4.90
2019-01-02T00:14:56.606Z,4.80
2019-01-02T00:17:22.733Z,4.80
2019-01-02T00:19:49.133Z,4.70
2019-01-02T00:22:15.371Z,4.80
2019-01-02T00:24:41.690Z,4.70
2019-01-02T00:27:07.690Z,4.90
2019-01-02T00:29:33.900Z,5.00
2019-01-02T00:32:00.142Z,5.00
2019-01-02T00:34:26.447Z,4.90
2019-01-02T00:36:52.446Z,4.90
2019-01-02T00:39:18.870Z,4.80
2019-01-02T00:41:44.863Z,4.80
2019-01-02T00:44:11.180Z,4.80
2019-01-02T00:46:37.431Z,4.90
2019-01-02T00:49:03.843Z,4.80
2019-01-02T00:51:29.855Z,4.80
2019-01-02T00:53:56.066Z,4.80
2019-01-02T00:56:22.302Z,4.70
2019-01-02T00:58:48.624Z,4.80
2019-01-02T01:01:14.627Z,4.70
2019-01-02T01:03:40.643Z,4.70
2019-01-02T01:06:06.643Z,4.60
2019-01-02T01:08:32.666Z,4.40
2019-01-02T01:10:59.193Z,4.10
2019-01-02T01:13:25.321Z,4.00
2019-01-02T01:15:51.821Z,4.10
2019-01-02T01:18:17.846Z,4.00
2019-01-02T01:20:44.486Z,3.90
2019-01-02T01:23:10.730Z,3.80
2019-01-02T01:25:37.135Z,3.90
2019-01-02T01:28:03.151Z,3.90
2019-01-02T01:30:29.154Z,3.80
2019-01-02T01:32:55.398Z,3.80
2019-01-02T01:35:21.411Z,3.70
2019-01-02T01:37:47.875Z,3.70
2019-01-02T01:40:13.880Z,3.70
2019-01-02T01:42:40.138Z,3.70
2019-01-02T01:45:08.543Z,3.80
2019-01-02T01:47:34.805Z,3.80
2019-01-02T01:50:01.108Z,3.70
2019-01-02T01:52:27.127Z,3.70
2019-01-02T01:54:53.552Z,3.70
2019-01-02T01:57:19.558Z,3.60
2019-01-02T01:59:45.810Z,3.60
2019-01-02T02:02:12.118Z,3.50
2019-01-02T02:04:38.371Z,3.40
2019-01-02T02:07:04.775Z,3.40
2019-01-02T02:09:30.798Z,3.60
2019-01-02T02:11:56.808Z,3.60
2019-01-02T02:14:22.808Z,3.50
2019-01-02T02:16:48.830Z,3.50
2019-01-02T02:19:15.054Z,3.60
2019-01-02T02:21:41.082Z,3.50
2019-01-02T02:24:07.711Z,3.40
2019-01-02T02:26:33.710Z,3.30
2019-01-02T02:28:59.734Z,3.30
2019-01-02T02:31:25.751Z,3.40
2019-01-02T02:33:52.158Z,3.30
2019-01-02T02:36:18.575Z,3.30
2019-01-02T02:38:45.221Z,3.30
2019-01-02T02:41:11.560Z,3.20
2019-01-02T02:43:38.038Z,3.20
2019-01-02T02:46:04.277Z,3.30
2019-01-02T02:48:30.919Z,3.40
2019-01-02T02:50:57.478Z,3.40
2019-01-02T02:53:23.786Z,3.30
2019-01-02T02:55:50.095Z,3.30
2019-01-02T02:58:16.516Z,3.40
2019-01-02T03:00:42.823Z,3.40
2019-01-02T03:03:09.237Z,3.30
2019-01-02T03:05:35.237Z,3.40
2019-01-02T03:08:01.341Z,3.40
2019-01-02T03:10:27.649Z,3.30
2019-01-02T03:12:54.057Z,3.30
2019-01-02T03:15:20.369Z,3.40
2019-01-02T03:17:46.378Z,3.30
2019-01-02T03:20:13.810Z,3.40
2019-01-02T03:22:40.319Z,3.40
2019-01-02T03:25:08.774Z,3.40
2019-01-02T03:27:35.408Z,3.40
2019-01-02T03:30:03.011Z,3.30
2019-01-02T03:32:29.445Z,3.40
2019-01-02T03:34:55.854Z,3.40
2019-01-02T03:37:21.866Z,3.30
2019-01-02T03:39:47.869Z,3.40
2019-01-02T03:42:13.874Z,3.50
2019-01-02T03:44:39.900Z,3.50
2019-01-02T03:47:05.913Z,3.40
2019-01-02T03:49:32.159Z,3.40
2019-01-02T03:51:58.179Z,3.30
2019-01-02T03:54:24.210Z,3.30
2019-01-02T03:56:50.201Z,3.40
2019-01-02T03:59:16.214Z,3.40
2019-01-02T04:01:42.213Z,3.40
2019-01-02T04:04:08.229Z,3.30
2019-01-02T04:06:34.241Z,3.40
2019-01-02T04:09:00.261Z,3.40
2019-01-02T04:11:26.271Z,3.40
2019-01-02T04:13:52.294Z,3.50
2019-01-02T04:16:18.307Z,3.60
2019-01-02T04:18:44.323Z,3.60
2019-01-02T04:21:10.341Z,3.70
2019-01-02T04:23:36.603Z,3.80
2019-01-02T04:26:02.719Z,3.70
2019-01-02T04:28:28.948Z,3.70
2019-01-02T04:30:54.972Z,3.50
2019-01-02T04:33:21.019Z,3.60
2019-01-02T04:35:47.130Z,3.50
2019-01-02T04:38:13.167Z,3.60
2019-01-02T04:40:39.257Z,3.60
2019-01-02T04:43:05.279Z,3.60
2019-01-02T04:45:31.293Z,3.50
2019-01-02T04:47:57.537Z,3.60
2019-01-02T04:50:23.553Z,3.50
2019-01-02T04:52:49.578Z,3.50
2019-01-02T04:55:15.602Z,3.50
2019-01-02T04:57:41.607Z,3.50
2019-01-02T05:00:10.432Z,3.50
2019-01-02T05:02:36.445Z,3.50
2019-01-02T05:05:03.805Z,3.50
2019-01-02T05:07:30.043Z,3.50
2019-01-02T05:09:56.287Z,3.50
2019-01-02T05:12:22.315Z,3.50
2019-01-02T05:14:48.322Z,3.50
2019-01-02T05:17:14.433Z,3.50
2019-01-02T05:19:40.433Z,3.50
2019-01-02T05:22:06.459Z,3.50
2019-01-02T05:24:32.478Z,3.60
2019-01-02T05:26:58.494Z,3.50
2019-01-02T05:29:24.530Z,3.60
2019-01-02T05:31:50.540Z,3.60
2019-01-02T05:34:16.534Z,3.60
2019-01-02T05:36:42.854Z,3.60
2019-01-02T05:39:08.854Z,3.70
2019-01-02T05:41:34.869Z,3.70
2019-01-02T05:44:00.891Z,3.70
2019-01-02T05:46:27.131Z,3.70
2019-01-02T05:48:53.149Z,3.60
2019-01-02T05:51:19.150Z,3.50
2019-01-02T05:53:45.170Z,3.60
2019-01-02T05:56:11.180Z,3.60
2019-01-02T05:58:37.437Z,3.60
2019-01-02T06:01:03.442Z,3.60
2019-01-02T06:03:29.699Z,3.60
2019-01-02T06:05:55.710Z,3.60
2019-01-02T06:08:21.952Z,3.60
2019-01-02T06:10:47.979Z,3.60
2019-01-02T06:13:14.000Z,3.50
2019-01-02T06:15:40.018Z,3.50
2019-01-02T06:18:06.272Z,3.50
2019-01-02T06:20:32.284Z,3.40
2019-01-02T06:22:58.310Z,3.40
2019-01-02T06:25:24.351Z,3.40
2019-01-02T06:27:50.359Z,3.30
2019-01-02T06:30:16.362Z,3.50
2019-01-02T06:32:42.395Z,3.50
2019-01-02T06:35:08.401Z,3.50
2019-01-02T06:37:34.411Z,3.50
2019-01-02T06:40:00.414Z,3.50
2019-01-02T06:42:26.431Z,3.60
2019-01-02T06:44:52.441Z,3.80
2019-01-02T06:47:18.691Z,4.00
2019-01-02T06:49:44.724Z,4.20
2019-01-02T06:52:10.747Z,4.20
2019-01-02T06:54:37.006Z,4.20
2019-01-02T06:57:03.036Z,4.10
2019-01-02T06:59:29.055Z,4.20
2019-01-02T07:01:55.055Z,4.20
2019-01-02T07:04:21.070Z,4.30
2019-01-02T07:06:47.073Z,4.30
2019-01-02T07:09:13.102Z,4.30
2019-01-02T07:11:39.117Z,4.30
2019-01-02T07:14:05.395Z,4.20
2019-01-02T07:16:31.394Z,4.10
2019-01-02T07:18:57.423Z,4.00
2019-01-02T07:21:23.438Z,3.90
2019-01-02T07:23:49.699Z,3.80
2019-01-02T07:26:15.723Z,3.80
2019-01-02T07:28:41.738Z,3.80
2019-01-02T07:31:07.750Z,4.00
2019-01-02T07:33:43.687Z,3.90
2019-01-02T07:36:22.400Z,3.90
2019-01-02T07:38:55.419Z,4.00
2019-01-02T07:41:48.687Z,3.80
2019-01-02T07:44:18.523Z,3.90
2019-01-02T07:46:57.176Z,3.80
2019-01-02T07:49:43.351Z,3.80
2019-01-02T07:52:28.273Z,3.70
2019-01-02T07:55:14.865Z,3.60
2019-01-02T07:57:56.833Z,3.70
2019-01-02T08:00:26.681Z,3.80
2019-01-02T08:02:59.707Z,3.80
2019-01-02T08:05:32.396Z,3.80
2019-01-02T08:08:05.282Z,4.00
2019-01-02T08:10:40.875Z,4.10
2019-01-02T08:13:16.779Z,4.00
2019-01-02T08:15:58.816Z,4.10
2019-01-02T08:18:40.499Z,4.20
2019-01-02T08:21:25.236Z,4.40
2019-01-02T08:24:16.355Z,4.60
2019-01-02T08:27:03.921Z,4.50
2019-01-02T08:29:40.002Z,4.60
2019-01-02T08:32:35.423Z,4.50
2019-01-02T08:35:11.381Z,4.40
2019-01-02T08:37:56.628Z,4.20
2019-01-02T08:40:48.859Z,4.20
2019-01-02T08:43:21.677Z,4.10
2019-01-02T08:46:00.535Z,4.30
2019-01-02T08:48:36.148Z,4.30
2019-01-02T08:51:35.610Z,4.40
2019-01-02T08:54:17.575Z,4.40
2019-01-02T08:56:50.214Z,4.40
2019-01-02T08:59:38.274Z,4.50
2019-01-02T09:02:22.484Z,4.40
2019-01-02T09:05:19.003Z,4.50
2019-01-02T09:08:03.063Z,4.40
2019-01-02T09:10:49.423Z,4.40
2019-01-02T09:13:24.999Z,4.60
2019-01-02T09:15:57.995Z,4.60
2019-01-02T09:18:27.794Z,4.60
2019-01-02T09:21:15.835Z,4.70
2019-01-02T09:24:20.191Z,4.70
2019-01-02T09:26:56.217Z,4.80
2019-01-02T09:29:31.754Z,4.90
2019-01-02T09:32:07.328Z,5.00
2019-01-02T09:35:05.679Z,5.00
2019-01-02T09:37:56.561Z,5.00
2019-01-02T09:40:35.756Z,4.80
2019-01-02T09:43:11.550Z,4.70
2019-01-02T09:45:44.462Z,4.70
2019-01-02T09:48:28.944Z,4.90
2019-01-02T09:51:15.168Z,4.90
2019-01-02T09:54:05.718Z,5.00
2019-01-02T09:56:38.607Z,5.10
2019-01-02T09:59:23.629Z,5.20
2019-01-02T10:02:26.809Z,5.00
2019-01-02T10:05:11.283Z,4.90
2019-01-02T10:07:57.787Z,4.90
2019-01-02T10:10:27.611Z,4.80
2019-01-02T10:13:22.992Z,4.60
2019-01-02T10:16:01.762Z,4.70
2019-01-02T10:18:49.356Z,5.00
2019-01-02T10:21:25.274Z,5.10
2019-01-02T10:24:29.672Z,5.40
2019-01-02T10:27:18.855Z,5.30
2019-01-02T10:29:51.691Z,5.30
2019-01-02T10:32:27.339Z,5.40
2019-01-02T10:35:13.843Z,5.50
2019-01-02T10:38:01.660Z,5.50
2019-01-02T10:40:40.046Z,5.70
2019-01-02T10:43:33.952Z,5.50
2019-01-02T10:46:09.576Z,5.30
2019-01-02T10:48:56.125Z,5.10
2019-01-02T10:51:54.239Z,5.00
2019-01-02T10:54:32.938Z,5.20
2019-01-02T10:57:02.837Z,5.40
2019-01-02T10:59:38.465Z,5.50
2019-01-02T11:02:14.264Z,5.50
2019-01-02T11:05:01.816Z,5.70
2019-01-02T11:07:46.020Z,5.80
2019-01-02T11:10:24.928Z,5.80
2019-01-02T11:13:12.427Z,5.90
2019-01-02T11:16:18.282Z,5.60
2019-01-02T11:18:59.922Z,5.40
2019-01-02T11:21:38.367Z,5.50
2019-01-02T11:24:24.648Z,5.50
2019-01-02T11:27:09.181Z,5.50
2019-01-02T11:29:39.220Z,5.30
2019-01-02T11:32:21.222Z,4.90
2019-01-02T11:34:51.024Z,4.70
2019-01-02T11:37:36.022Z,4.60
2019-01-02T11:40:15.899Z,4.60
2019-01-02T11:42:51.616Z,4.80
2019-01-02T11:45:17.631Z,4.90
2019-01-02T11:47:43.634Z,5.00
2019-01-02T11:50:11.379Z,5.10
2019-01-02T11:52:37.511Z,5.10
2019-01-02T11:55:05.651Z,5.10
2019-01-02T11:57:31.664Z,5.30
2019-01-02T11:59:57.674Z,5.20
2019-01-02T12:02:23.708Z,5.40
2019-01-02T12:04:49.718Z,5.30
2019-01-02T12:07:15.727Z,5.40
2019-01-02T12:09:41.751Z,5.50
2019-01-02T12:12:07.762Z,5.60
2019-01-02T12:14:33.801Z,5.70
2019-01-02T12:16:59.803Z,5.80
2019-01-02T12:19:25.845Z,6.30
2019-01-02T12:21:51.865Z,6.50
2019-01-02T12:24:17.870Z,6.40
2019-01-02T12:26:44.112Z,6.30
2019-01-02T12:29:10.127Z,5.90
2019-01-02T12:31:36.145Z,5.90
2019-01-02T12:34:02.386Z,6.20
2019-01-02T12:36:28.446Z,6.10
2019-01-02T12:38:54.767Z,6.10
2019-01-02T12:41:21.019Z,6.00
2019-01-02T12:43:47.017Z,6.10
2019-01-02T12:46:13.048Z,6.00
2019-01-02T12:48:39.156Z,6.00
2019-01-02T12:51:05.396Z,6.00
2019-01-02T12:53:31.401Z,6.30
2019-01-02T12:55:57.412Z,6.30
2019-01-02T12:58:23.438Z,6.20
2019-01-02T13:00:53.491Z,6.10
2019-01-02T13:03:29.073Z,6.20
2019-01-02T13:06:07.559Z,6.10
2019-01-02T13:08:37.374Z,5.90
2019-01-02T13:11:10.193Z,5.80
2019-01-02T13:14:14.750Z,5.80
2019-01-02T13:17:11.309Z,5.60
2019-01-02T13:19:56.507Z,5.50
2019-01-02T13:22:42.713Z,5.60
2019-01-02T13:25:12.558Z,5.80
2019-01-02T13:27:45.118Z,5.90
2019-01-02T13:30:36.370Z,6.10
2019-01-02T13:33:21.312Z,6.30
2019-01-02T13:36:03.981Z,6.20
2019-01-02T13:38:42.316Z,6.30
2019-01-02T13:41:27.027Z,6.30
2019-01-02T13:44:02.201Z,6.40
2019-01-02T13:46:40.706Z,6.50
2019-01-02T13:49:33.085Z,6.30
2019-01-02T13:51:59.418Z,6.10
2019-01-02T13:54:25.634Z,5.90
2019-01-02T13:56:51.647Z,5.70
2019-01-02T13:59:17.685Z,5.70
2019-01-02T14:01:43.691Z,5.60
2019-01-02T14:04:09.710Z,5.80
2019-01-02T14:06:35.778Z,5.90
2019-01-02T14:09:05.420Z,6.00
2019-01-02T14:11:31.410Z,6.00
2019-01-02T14:13:57.671Z,6.10
2019-01-02T14:16:23.693Z,6.00
2019-01-02T14:18:49.705Z,5.90
2019-01-02T14:21:15.737Z,5.90
2019-01-02T14:23:42.214Z,5.70
2019-01-02T14:26:08.215Z,5.50
2019-01-02T14:28:34.218Z,5.40
2019-01-02T14:31:00.247Z,5.40
2019-01-02T14:33:26.503Z,5.50
2019-01-02T14:35:52.516Z,5.30
2019-01-02T14:38:18.509Z,5.20
2019-01-02T14:40:44.747Z,5.20
2019-01-02T14:43:11.008Z,5.30
2019-01-02T14:45:37.029Z,5.20
2019-01-02T14:48:03.039Z,5.30
2019-01-02T14:50:29.304Z,5.40
2019-01-02T14:52:55.305Z,5.20
2019-01-02T14:55:21.315Z,5.10
2019-01-02T14:57:47.581Z,5.10
2019-01-02T15:00:13.569Z,5.10
2019-01-02T15:02:39.835Z,5.20
2019-01-02T15:05:05.830Z,5.10
2019-01-02T15:07:31.858Z,5.00
2019-01-02T15:09:57.884Z,5.00
2019-01-02T15:12:25.312Z,4.80
2019-01-02T15:14:51.310Z,4.70
2019-01-02T15:17:17.323Z,4.60
2019-01-02T15:19:43.347Z,4.40
2019-01-02T15:22:09.349Z,4.40
2019-01-02T15:24:35.365Z,4.30
2019-01-02T15:27:01.375Z,4.20
2019-01-02T15:29:27.398Z,4.10
2019-01-02T15:31:53.407Z,3.80
2019-01-02T15:34:19.658Z,3.70
2019-01-02T15:36:45.665Z,3.50
2019-01-02T15:39:11.685Z,3.80
2019-01-02T15:41:37.704Z,3.80
2019-01-02T15:44:03.727Z,4.00
2019-01-02T15:46:29.751Z,3.70
2019-01-02T15:48:55.777Z,3.70
2019-01-02T15:51:22.983Z,3.60
2019-01-02T15:53:49.091Z,3.80
2019-01-02T15:56:15.107Z,3.60
2019-01-02T15:58:41.330Z,3.60
2019-01-02T16:01:07.345Z,3.40
2019-01-02T16:03:33.378Z,3.30
2019-01-02T16:05:59.395Z,3.50
2019-01-02T16:08:25.428Z,3.50
2019-01-02T16:10:51.463Z,3.50
2019-01-02T16:13:17.471Z,3.50
2019-01-02T16:15:43.710Z,3.50
2019-01-02T16:18:09.705Z,3.50
2019-01-02T16:20:35.747Z,3.50
2019-01-02T16:23:01.779Z,3.50
2019-01-02T16:25:27.782Z,3.30
2019-01-02T16:27:53.797Z,3.20
2019-01-02T16:30:19.814Z,3.30
2019-01-02T16:32:45.847Z,3.30
2019-01-02T16:35:11.863Z,3.30
2019-01-02T16:37:37.908Z,3.30
2019-01-02T16:40:07.397Z,3.20
2019-01-02T16:42:33.418Z,3.30
2019-01-02T16:44:59.444Z,3.10
2019-01-02T16:47:25.472Z,3.00
2019-01-02T16:49:51.730Z,3.00
2019-01-02T16:52:17.741Z,3.00
2019-01-02T16:54:43.757Z,3.10
2019-01-02T16:57:10.002Z,3.00
2019-01-02T16:59:36.072Z,2.90
2019-01-02T17:02:02.397Z,3.00
2019-01-02T17:04:28.639Z,2.70
2019-01-02T17:06:54.879Z,2.70
2019-01-02T17:09:20.906Z,2.80
2019-01-02T17:11:46.917Z,2.50
2019-01-02T17:14:12.936Z,2.50
2019-01-02T17:16:38.961Z,2.50
2019-01-02T17:19:04.985Z,2.40
2019-01-02T17:21:31.047Z,2.20
2019-01-02T17:23:57.158Z,2.10
2019-01-02T17:26:23.171Z,1.90
2019-01-02T17:28:49.424Z,2.10
2019-01-02T17:31:15.429Z,2.10
2019-01-02T17:33:41.429Z,2.10
2019-01-02T17:36:07.459Z,1.90
2019-01-02T17:38:33.685Z,2.10
2019-01-02T17:40:59.923Z,2.10
2019-01-02T17:43:25.925Z,1.90
2019-01-02T17:45:52.170Z,1.90
2019-01-02T17:48:18.174Z,1.90
2019-01-02T17:50:44.420Z,1.80
2019-01-02T17:53:10.433Z,1.60
2019-01-02T17:55:36.447Z,1.70
2019-01-02T17:58:02.556Z,1.80
2019-01-02T18:00:28.593Z,1.70
2019-01-02T18:02:54.618Z,1.60
2019-01-02T18:05:20.625Z,1.60
2019-01-02T18:07:46.636Z,1.80
2019-01-02T18:10:12.866Z,1.80
2019-01-02T18:12:38.871Z,1.70
2019-01-02T18:15:06.227Z,1.70
2019-01-02T18:17:32.249Z,1.90
2019-01-02T18:19:58.271Z,2.00
2019-01-02T18:22:24.498Z,2.00
2019-01-02T18:24:50.535Z,1.80
2019-01-02T18:27:16.534Z,1.60
2019-01-02T18:29:42.542Z,1.40
2019-01-02T18:32:08.550Z,1.30
2019-01-02T18:34:34.814Z,1.40
2019-01-02T18:37:00.839Z,1.30
2019-01-02T18:39:27.079Z,1.60
2019-01-02T18:41:53.123Z,1.80
2019-01-02T18:44:20.450Z,1.50
2019-01-02T18:46:46.985Z,1.50
2019-01-02T18:49:12.987Z,1.40
2019-01-02T18:51:39.014Z,1.40
2019-01-02T18:54:05.038Z,1.50
2019-01-02T18:56:31.054Z,1.80
2019-01-02T18:58:57.070Z,1.60
2019-01-02T19:01:23.069Z,1.30
2019-01-02T19:03:49.175Z,1.20
2019-01-02T19:06:15.402Z,1.60
2019-01-02T19:08:41.417Z,1.40
2019-01-02T19:11:07.438Z,1.40
2019-01-02T19:13:33.456Z,1.30
2019-01-02T19:15:59.470Z,1.40
2019-01-02T19:18:25.483Z,1.20
2019-01-02T19:20:51.518Z,1.20
2019-01-02T19:23:17.534Z,1.50
2019-01-02T19:25:43.552Z,1.50
2019-01-02T19:28:09.800Z,1.60
2019-01-02T19:30:35.902Z,1.60
2019-01-02T19:33:01.910Z,1.70
2019-01-02T19:35:27.920Z,1.60
2019-01-02T19:37:53.927Z,1.50
2019-01-02T19:40:19.943Z,1.50
2019-01-02T19:42:45.958Z,1.50
2019-01-02T19:45:12.210Z,1.30
2019-01-02T19:47:38.233Z,1.40
2019-01-02T19:50:06.671Z,1.10
2019-01-02T19:52:32.701Z,1.00
2019-01-02T19:54:58.716Z,1.00
2019-01-02T19:57:24.944Z,1.00
2019-01-02T19:59:50.997Z,1.00
2019-01-02T20:02:17.074Z,1.50
2019-01-02T20:04:43.079Z,1.50
2019-01-02T20:07:09.078Z,1.30
2019-01-02T20:09:35.101Z,1.10
2019-01-02T20:12:01.119Z,1.00
2019-01-02T20:14:27.204Z,0.90
2019-01-02T20:16:53.215Z,0.80
2019-01-02T20:19:19.227Z,0.70
2019-01-02T20:21:45.237Z,0.90
2019-01-02T20:24:11.258Z,0.80
2019-01-02T20:26:37.263Z,0.80
2019-01-02T20:29:03.265Z,0.80
2019-01-02T20:31:29.278Z,0.70
2019-01-02T20:33:55.292Z,0.60
2019-01-02T20:36:21.320Z,0.50
2019-01-02T20:38:47.553Z,0.40
2019-01-02T20:41:13.567Z,0.40
2019-01-02T20:43:39.571Z,0.40
2019-01-02T20:46:05.591Z,0.40
2019-01-02T20:48:31.831Z,0.40
2019-01-02T20:50:57.874Z,0.40
2019-01-02T20:53:23.884Z,0.30
2019-01-02T20:55:49.884Z,0.40
2019-01-02T20:58:15.900Z,0.50
2019-01-02T21:00:42.134Z,0.40
2019-01-02T21:03:08.166Z,0.50
2019-01-02T21:05:34.178Z,0.40
2019-01-02T21:08:00.414Z,0.50
2019-01-02T21:10:26.427Z,0.60
2019-01-02T21:12:52.432Z,0.40
2019-01-02T21:15:18.449Z,0.30
2019-01-02T21:17:44.450Z,0.20
2019-01-02T21:20:10.499Z,0.30
2019-01-02T21:22:36.736Z,0.20
2019-01-02T21:25:05.133Z,0.30
2019-01-02T21:27:31.148Z,0.40
2019-01-02T21:29:57.150Z,0.30
2019-01-02T21:32:23.157Z,0.30
2019-01-02T21:34:49.411Z,0.40
2019-01-02T21:37:15.441Z,0.80
2019-01-02T21:39:41.437Z,0.70
2019-01-02T21:42:07.459Z,0.60
2019-01-02T21:44:33.501Z,0.50
2019-01-02T21:46:59.578Z,0.40
2019-01-02T21:49:25.581Z,0.30
2019-01-02T21:51:51.847Z,0.20
2019-01-02T21:54:18.088Z,0.20
2019-01-02T21:56:44.095Z,0.40
2019-01-02T21:59:10.110Z,0.30
2019-01-02T22:01:36.163Z,0.40
2019-01-02T22:04:02.408Z,0.30
2019-01-02T22:06:28.638Z,0.20
2019-01-02T22:08:54.645Z,0.00
2019-01-02T22:11:20.881Z,0.10
2019-01-02T22:13:46.893Z,0.00
2019-01-02T22:16:12.894Z,0.00
2019-01-02T22:18:39.146Z,0.10
2019-01-02T22:21:05.137Z,0.10
2019-01-02T22:23:31.356Z,0.00
2019-01-02T22:25:57.371Z,0.10
2019-01-02T22:28:23.590Z,0.10
2019-01-02T22:30:49.620Z,0.00
2019-01-02T22:33:15.619Z,0.00
2019-01-02T22:35:41.637Z,-0.20
2019-01-02T22:38:07.867Z,-0.30
2019-01-02T22:40:33.882Z,-0.30
2019-01-02T22:42:59.881Z,-0.30
2019-01-02T22:45:25.903Z,-0.30
2019-01-02T22:47:52.158Z,-0.20
2019-01-02T22:50:18.189Z,-0.20
2019-01-02T22:52:44.203Z,-0.10
2019-01-02T22:55:10.211Z,-0.10
2019-01-02T22:57:36.223Z,-0.20
2019-01-02T23:00:06.128Z,-0.30
2019-01-02T23:02:34.047Z,-0.30
2019-01-02T23:05:18.140Z,-0.20
2019-01-02T23:07:51.833Z,-0.40
2019-01-02T23:10:36.067Z,-0.50
2019-01-02T23:13:09.990Z,-0.60
2019-01-02T23:15:37.890Z,-0.70
2019-01-02T23:18:05.801Z,-0.70
2019-01-02T23:20:39.477Z,-0.70
2019-01-02T23:23:13.287Z,-0.70
2019-01-02T23:25:56.222Z,-0.50
2019-01-02T23:28:35.913Z,-0.30
2019-01-02T23:31:09.349Z,-0.30
2019-01-02T23:33:37.251Z,-0.30
2019-01-02T23:36:21.679Z,-0.20
2019-01-02T23:38:55.397Z,-0.20
2019-01-02T23:41:23.336Z,-0.30
2019-01-02T23:44:07.385Z,-0.20
2019-01-02T23:46:47.127Z,-0.30
2019-01-02T23:49:15.030Z,-0.20
2019-01-02T23:51:42.967Z,-0.30
2019-01-02T23:54:27.331Z,-0.30
2019-01-02T23:57:11.690Z,-0.30
2019-01-02T23:59:54.501Z,-0.30
